sensor_id;sensor_type;location;lat;lon;timestamp;P1;durP1;ratioP1;P2;durP2;ratioP2
65552;SDS011;52465;51.560;14.368;2023-03-14T00:00:51;6.40;;;5.97;;
65552;SDS011;52465;51.560;14.368;2023-03-14T00:03:17;5.90;;;5.60;;
65552;SDS011;52465;51.560;14.368;2023-03-14T00:05:42;6.05;;;5.75;;
65552;SDS011;52465;51.560;14.368;2023-03-14T00:08:08;6.10;;;5.75;;
65552;SDS011;52465;51.560;14.368;2023-03-14T00:10:33;6.40;;;6.10;;
65552;SDS011;52465;51.560;14.368;2023-03-14T00:13:01;6.13;;;5.80;;
65552;SDS011;52465;51.560;14.368;2023-03-14T00:15:26;6.10;;;5.80;;
65552;SDS011;52465;51.560;14.368;2023-03-14T00:17:52;6.03;;;5.72;;
65552;SDS011;52465;51.560;14.368;2023-03-14T00:20:17;6.13;;;5.80;;
65552;SDS011;52465;51.560;14.368;2023-03-14T00:22:43;6.03;;;5.72;;
65552;SDS011;52465;51.560;14.368;2023-03-14T00:25:08;5.80;;;5.50;;
65552;SDS011;52465;51.560;14.368;2023-03-14T00:27:35;6.10;;;5.80;;
65552;SDS011;52465;51.560;14.368;2023-03-14T00:30:01;6.15;;;5.75;;
65552;SDS011;52465;51.560;14.368;2023-03-14T00:32:28;6.10;;;5.70;;
65552;SDS011;52465;51.560;14.368;2023-03-14T00:34:53;5.90;;;5.60;;
65552;SDS011;52465;51.560;14.368;2023-03-14T00:37:18;5.80;;;5.50;;
65552;SDS011;52465;51.560;14.368;2023-03-14T00:39:44;6.18;;;5.60;;
65552;SDS011;52465;51.560;14.368;2023-03-14T00:42:12;6.00;;;5.70;;
65552;SDS011;52465;51.560;14.368;2023-03-14T00:44:39;5.95;;;5.65;;
65552;SDS011;52465;51.560;14.368;2023-03-14T00:47:04;6.03;;;5.72;;
65552;SDS011;52465;51.560;14.368;2023-03-14T00:49:30;6.10;;;5.80;;
65552;SDS011;52465;51.560;14.368;2023-03-14T00:51:55;5.97;;;5.68;;
65552;SDS011;52465;51.560;14.368;2023-03-14T00:54:20;6.35;;;5.95;;
65552;SDS011;52465;51.560;14.368;2023-03-14T00:56:46;5.95;;;5.65;;
65552;SDS011;52465;51.560;14.368;2023-03-14T00:59:12;5.97;;;5.68;;
65552;SDS011;52465;51.560;14.368;2023-03-14T01:01:38;6.13;;;5.82;;
65552;SDS011;52465;51.560;14.368;2023-03-14T01:04:04;6.30;;;6.00;;
65552;SDS011;52465;51.560;14.368;2023-03-14T01:06:30;6.05;;;5.65;;
65552;SDS011;52465;51.560;14.368;2023-03-14T01:08:55;6.10;;;5.80;;
65552;SDS011;52465;51.560;14.368;2023-03-14T01:11:26;6.18;;;5.85;;
65552;SDS011;52465;51.560;14.368;2023-03-14T01:13:53;6.13;;;5.72;;
65552;SDS011;52465;51.560;14.368;2023-03-14T01:16:20;6.35;;;5.97;;
65552;SDS011;52465;51.560;14.368;2023-03-14T01:18:47;6.30;;;6.00;;
65552;SDS011;52465;51.560;14.368;2023-03-14T01:21:14;6.20;;;5.80;;
65552;SDS011;52465;51.560;14.368;2023-03-14T01:23:42;6.10;;;5.80;;
65552;SDS011;52465;51.560;14.368;2023-03-14T01:26:09;6.20;;;5.90;;
65552;SDS011;52465;51.560;14.368;2023-03-14T01:28:36;6.18;;;5.88;;
65552;SDS011;52465;51.560;14.368;2023-03-14T01:31:02;6.22;;;5.88;;
65552;SDS011;52465;51.560;14.368;2023-03-14T01:33:29;6.28;;;5.90;;
65552;SDS011;52465;51.560;14.368;2023-03-14T01:35:54;6.05;;;5.75;;
65552;SDS011;52465;51.560;14.368;2023-03-14T01:38:20;6.00;;;5.70;;
65552;SDS011;52465;51.560;14.368;2023-03-14T01:40:45;6.00;;;5.70;;
65552;SDS011;52465;51.560;14.368;2023-03-14T01:43:16;6.10;;;5.80;;
65552;SDS011;52465;51.560;14.368;2023-03-14T01:48:47;6.28;;;5.88;;
65552;SDS011;52465;51.560;14.368;2023-03-14T01:51:18;6.13;;;5.82;;
65552;SDS011;52465;51.560;14.368;2023-03-14T01:56:40;6.00;;;5.70;;
65552;SDS011;52465;51.560;14.368;2023-03-14T01:59:09;5.80;;;5.23;;
65552;SDS011;52465;51.560;14.368;2023-03-14T02:01:36;6.30;;;6.00;;
65552;SDS011;52465;51.560;14.368;2023-03-14T02:04:05;5.90;;;5.60;;
65552;SDS011;52465;51.560;14.368;2023-03-14T02:06:39;6.30;;;5.90;;
65552;SDS011;52465;51.560;14.368;2023-03-14T02:09:17;5.82;;;5.53;;
65552;SDS011;52465;51.560;14.368;2023-03-14T02:11:44;6.22;;;5.93;;
65552;SDS011;52465;51.560;14.368;2023-03-14T02:14:12;6.30;;;6.00;;
65552;SDS011;52465;51.560;14.368;2023-03-14T02:16:49;6.00;;;5.70;;
65552;SDS011;52465;51.560;14.368;2023-03-14T02:19:16;6.25;;;5.95;;
65552;SDS011;52465;51.560;14.368;2023-03-14T02:21:52;5.70;;;5.50;;
65552;SDS011;52465;51.560;14.368;2023-03-14T02:24:33;6.35;;;6.00;;
65552;SDS011;52465;51.560;14.368;2023-03-14T02:29:41;6.18;;;5.88;;
65552;SDS011;52465;51.560;14.368;2023-03-14T02:32:27;6.32;;;6.03;;
65552;SDS011;52465;51.560;14.368;2023-03-14T02:34:56;6.53;;;6.13;;
65552;SDS011;52465;51.560;14.368;2023-03-14T02:37:26;6.13;;;5.82;;
65552;SDS011;52465;51.560;14.368;2023-03-14T02:40:02;6.53;;;6.13;;
65552;SDS011;52465;51.560;14.368;2023-03-14T02:42:29;6.32;;;5.93;;
65552;SDS011;52465;51.560;14.368;2023-03-14T02:44:59;6.15;;;5.85;;
65552;SDS011;52465;51.560;14.368;2023-03-14T02:47:54;6.20;;;5.90;;
65552;SDS011;52465;51.560;14.368;2023-03-14T02:50:25;5.78;;;5.57;;
65552;SDS011;52465;51.560;14.368;2023-03-14T02:52:54;6.07;;;5.78;;
65552;SDS011;52465;51.560;14.368;2023-03-14T02:55:20;6.40;;;6.00;;
65552;SDS011;52465;51.560;14.368;2023-03-14T02:57:46;5.85;;;5.63;;
65552;SDS011;52465;51.560;14.368;2023-03-14T03:00:12;6.25;;;5.95;;
65552;SDS011;52465;51.560;14.368;2023-03-14T03:02:37;6.20;;;5.90;;
65552;SDS011;52465;51.560;14.368;2023-03-14T03:05:03;6.10;;;5.80;;
65552;SDS011;52465;51.560;14.368;2023-03-14T03:07:29;6.68;;;6.13;;
65552;SDS011;52465;51.560;14.368;2023-03-14T03:09:54;6.30;;;5.90;;
65552;SDS011;52465;51.560;14.368;2023-03-14T03:12:19;6.10;;;5.80;;
65552;SDS011;52465;51.560;14.368;2023-03-14T03:14:45;6.28;;;5.95;;
65552;SDS011;52465;51.560;14.368;2023-03-14T03:17:11;6.13;;;5.82;;
65552;SDS011;52465;51.560;14.368;2023-03-14T03:19:36;6.30;;;5.80;;
65552;SDS011;52465;51.560;14.368;2023-03-14T03:22:01;6.25;;;5.95;;
65552;SDS011;52465;51.560;14.368;2023-03-14T03:24:27;6.32;;;6.03;;
65552;SDS011;52465;51.560;14.368;2023-03-14T03:26:52;6.22;;;5.82;;
65552;SDS011;52465;51.560;14.368;2023-03-14T03:29:18;6.10;;;5.80;;
65552;SDS011;52465;51.560;14.368;2023-03-14T03:31:43;6.20;;;5.90;;
65552;SDS011;52465;51.560;14.368;2023-03-14T03:34:10;6.10;;;5.75;;
65552;SDS011;52465;51.560;14.368;2023-03-14T03:36:58;6.55;;;6.15;;
65552;SDS011;52465;51.560;14.368;2023-03-14T03:39:23;6.30;;;6.00;;
65552;SDS011;52465;51.560;14.368;2023-03-14T03:41:49;6.20;;;5.90;;
65552;SDS011;52465;51.560;14.368;2023-03-14T03:44:14;6.40;;;6.10;;
65552;SDS011;52465;51.560;14.368;2023-03-14T03:46:40;6.03;;;5.72;;
65552;SDS011;52465;51.560;14.368;2023-03-14T03:49:05;6.20;;;5.90;;
65552;SDS011;52465;51.560;14.368;2023-03-14T03:51:31;6.10;;;5.78;;
65552;SDS011;52465;51.560;14.368;2023-03-14T03:53:56;6.60;;;6.20;;
65552;SDS011;52465;51.560;14.368;2023-03-14T03:56:22;6.38;;;6.07;;
65552;SDS011;52465;51.560;14.368;2023-03-14T03:58:47;6.00;;;5.50;;
65552;SDS011;52465;51.560;14.368;2023-03-14T04:01:13;5.80;;;5.53;;
65552;SDS011;52465;51.560;14.368;2023-03-14T04:03:38;6.43;;;6.00;;
65552;SDS011;52465;51.560;14.368;2023-03-14T04:06:05;6.20;;;5.88;;
65552;SDS011;52465;51.560;14.368;2023-03-14T04:08:32;6.18;;;5.88;;
65552;SDS011;52465;51.560;14.368;2023-03-14T04:10:58;6.22;;;5.93;;
65552;SDS011;52465;51.560;14.368;2023-03-14T04:13:25;6.15;;;5.85;;
65552;SDS011;52465;51.560;14.368;2023-03-14T04:15:51;6.28;;;5.88;;
65552;SDS011;52465;51.560;14.368;2023-03-14T04:18:17;6.45;;;6.15;;
65552;SDS011;52465;51.560;14.368;2023-03-14T04:20:43;6.28;;;5.93;;
65552;SDS011;52465;51.560;14.368;2023-03-14T04:23:09;6.43;;;6.13;;
65552;SDS011;52465;51.560;14.368;2023-03-14T04:25:35;6.10;;;5.80;;
65552;SDS011;52465;51.560;14.368;2023-03-14T04:28:00;6.63;;;6.13;;
65552;SDS011;52465;51.560;14.368;2023-03-14T04:33:10;6.03;;;5.72;;
65552;SDS011;52465;51.560;14.368;2023-03-14T04:35:38;5.40;;;5.10;;
65552;SDS011;52465;51.560;14.368;2023-03-14T04:38:03;6.03;;;5.70;;
65552;SDS011;52465;51.560;14.368;2023-03-14T04:40:32;5.88;;;5.57;;
65552;SDS011;52465;51.560;14.368;2023-03-14T04:42:57;6.03;;;5.72;;
65552;SDS011;52465;51.560;14.368;2023-03-14T04:45:23;5.72;;;5.43;;
65552;SDS011;52465;51.560;14.368;2023-03-14T04:47:56;6.15;;;5.85;;
65552;SDS011;52465;51.560;14.368;2023-03-14T04:50:22;6.40;;;6.10;;
65552;SDS011;52465;51.560;14.368;2023-03-14T04:52:47;6.40;;;6.10;;
65552;SDS011;52465;51.560;14.368;2023-03-14T04:55:13;6.28;;;5.97;;
65552;SDS011;52465;51.560;14.368;2023-03-14T04:57:40;6.20;;;5.90;;
65552;SDS011;52465;51.560;14.368;2023-03-14T05:00:06;6.20;;;5.90;;
65552;SDS011;52465;51.560;14.368;2023-03-14T05:02:32;6.10;;;5.70;;
65552;SDS011;52465;51.560;14.368;2023-03-14T05:04:58;6.32;;;6.03;;
65552;SDS011;52465;51.560;14.368;2023-03-14T05:07:24;6.32;;;6.03;;
65552;SDS011;52465;51.560;14.368;2023-03-14T05:09:49;6.10;;;5.80;;
65552;SDS011;52465;51.560;14.368;2023-03-14T05:12:15;6.00;;;5.70;;
65552;SDS011;52465;51.560;14.368;2023-03-14T05:14:59;6.20;;;5.90;;
65552;SDS011;52465;51.560;14.368;2023-03-14T05:17:25;6.30;;;6.00;;
65552;SDS011;52465;51.560;14.368;2023-03-14T05:19:51;5.90;;;5.57;;
65552;SDS011;52465;51.560;14.368;2023-03-14T05:22:16;6.45;;;6.15;;
65552;SDS011;52465;51.560;14.368;2023-03-14T05:24:42;6.32;;;6.00;;
65552;SDS011;52465;51.560;14.368;2023-03-14T05:27:07;6.28;;;5.97;;
65552;SDS011;52465;51.560;14.368;2023-03-14T05:29:32;6.47;;;6.07;;
65552;SDS011;52465;51.560;14.368;2023-03-14T05:31:58;6.57;;;6.20;;
65552;SDS011;52465;51.560;14.368;2023-03-14T05:34:23;6.18;;;5.88;;
65552;SDS011;52465;51.560;14.368;2023-03-14T05:36:49;6.60;;;6.30;;
65552;SDS011;52465;51.560;14.368;2023-03-14T05:39:14;6.28;;;5.97;;
65552;SDS011;52465;51.560;14.368;2023-03-14T05:41:40;6.10;;;5.57;;
65552;SDS011;52465;51.560;14.368;2023-03-14T05:44:05;6.10;;;5.80;;
65552;SDS011;52465;51.560;14.368;2023-03-14T05:46:30;6.10;;;5.80;;
65552;SDS011;52465;51.560;14.368;2023-03-14T05:48:56;6.25;;;5.95;;
65552;SDS011;52465;51.560;14.368;2023-03-14T05:51:23;6.30;;;5.90;;
65552;SDS011;52465;51.560;14.368;2023-03-14T05:53:48;6.30;;;5.90;;
65552;SDS011;52465;51.560;14.368;2023-03-14T05:56:14;6.00;;;5.60;;
65552;SDS011;52465;51.560;14.368;2023-03-14T05:58:39;6.30;;;6.00;;
65552;SDS011;52465;51.560;14.368;2023-03-14T06:01:05;6.00;;;5.70;;
65552;SDS011;52465;51.560;14.368;2023-03-14T06:03:32;6.10;;;5.80;;
65552;SDS011;52465;51.560;14.368;2023-03-14T06:05:58;6.25;;;5.88;;
65552;SDS011;52465;51.560;14.368;2023-03-14T06:08:23;6.25;;;5.95;;
65552;SDS011;52465;51.560;14.368;2023-03-14T06:10:49;6.22;;;5.82;;
65552;SDS011;52465;51.560;14.368;2023-03-14T06:13:16;5.75;;;5.45;;
65552;SDS011;52465;51.560;14.368;2023-03-14T06:15:42;6.03;;;5.72;;
65552;SDS011;52465;51.560;14.368;2023-03-14T06:18:08;5.90;;;5.60;;
65552;SDS011;52465;51.560;14.368;2023-03-14T06:20:37;6.20;;;5.90;;
65552;SDS011;52465;51.560;14.368;2023-03-14T06:23:06;5.82;;;5.53;;
65552;SDS011;52465;51.560;14.368;2023-03-14T06:25:33;6.15;;;5.75;;
65552;SDS011;52465;51.560;14.368;2023-03-14T06:27:59;5.85;;;5.55;;
65552;SDS011;52465;51.560;14.368;2023-03-14T06:30:25;6.35;;;5.95;;
65552;SDS011;52465;51.560;14.368;2023-03-14T06:32:50;6.05;;;5.75;;
65552;SDS011;52465;51.560;14.368;2023-03-14T06:35:16;5.90;;;5.60;;
65552;SDS011;52465;51.560;14.368;2023-03-14T06:37:42;6.43;;;6.13;;
65552;SDS011;52465;51.560;14.368;2023-03-14T06:40:08;6.35;;;6.05;;
65552;SDS011;52465;51.560;14.368;2023-03-14T06:42:35;5.90;;;5.60;;
65552;SDS011;52465;51.560;14.368;2023-03-14T06:45:00;6.30;;;5.90;;
65552;SDS011;52465;51.560;14.368;2023-03-14T06:47:29;6.13;;;5.82;;
65552;SDS011;52465;51.560;14.368;2023-03-14T06:49:55;5.95;;;5.65;;
65552;SDS011;52465;51.560;14.368;2023-03-14T06:52:20;5.95;;;5.65;;
65552;SDS011;52465;51.560;14.368;2023-03-14T06:54:46;6.03;;;5.72;;
65552;SDS011;52465;51.560;14.368;2023-03-14T06:57:13;6.07;;;5.78;;
65552;SDS011;52465;51.560;14.368;2023-03-14T06:59:39;6.15;;;5.75;;
65552;SDS011;52465;51.560;14.368;2023-03-14T07:02:10;6.40;;;6.10;;
65552;SDS011;52465;51.560;14.368;2023-03-14T07:04:35;6.22;;;5.90;;
65552;SDS011;52465;51.560;14.368;2023-03-14T07:07:01;5.75;;;5.45;;
65552;SDS011;52465;51.560;14.368;2023-03-14T07:09:26;5.60;;;5.40;;
65552;SDS011;52465;51.560;14.368;2023-03-14T07:11:52;5.63;;;5.43;;
65552;SDS011;52465;51.560;14.368;2023-03-14T07:14:17;5.78;;;5.43;;
65552;SDS011;52465;51.560;14.368;2023-03-14T07:16:42;6.05;;;5.68;;
65552;SDS011;52465;51.560;14.368;2023-03-14T07:19:08;6.07;;;5.78;;
65552;SDS011;52465;51.560;14.368;2023-03-14T07:21:33;5.85;;;5.45;;
65552;SDS011;52465;51.560;14.368;2023-03-14T07:23:59;6.07;;;5.78;;
65552;SDS011;52465;51.560;14.368;2023-03-14T07:26:25;6.30;;;6.00;;
65552;SDS011;52465;51.560;14.368;2023-03-14T07:28:51;6.25;;;5.85;;
65552;SDS011;52465;51.560;14.368;2023-03-14T07:31:16;6.10;;;5.80;;
65552;SDS011;52465;51.560;14.368;2023-03-14T07:33:42;5.95;;;5.65;;
65552;SDS011;52465;51.560;14.368;2023-03-14T07:36:07;6.15;;;5.85;;
65552;SDS011;52465;51.560;14.368;2023-03-14T07:38:33;5.90;;;5.60;;
65552;SDS011;52465;51.560;14.368;2023-03-14T07:41:00;6.10;;;5.80;;
65552;SDS011;52465;51.560;14.368;2023-03-14T07:43:30;6.32;;;5.80;;
65552;SDS011;52465;51.560;14.368;2023-03-14T07:45:57;6.00;;;5.70;;
65552;SDS011;52465;51.560;14.368;2023-03-14T07:48:22;6.13;;;5.80;;
65552;SDS011;52465;51.560;14.368;2023-03-14T07:50:50;6.07;;;5.70;;
65552;SDS011;52465;51.560;14.368;2023-03-14T07:53:16;5.80;;;5.50;;
65552;SDS011;52465;51.560;14.368;2023-03-14T07:55:42;6.43;;;6.13;;
65552;SDS011;52465;51.560;14.368;2023-03-14T07:58:08;6.28;;;5.95;;
65552;SDS011;52465;51.560;14.368;2023-03-14T08:00:33;6.20;;;5.80;;
65552;SDS011;52465;51.560;14.368;2023-03-14T08:02:59;6.38;;;5.88;;
65552;SDS011;52465;51.560;14.368;2023-03-14T08:05:24;6.50;;;6.10;;
65552;SDS011;52465;51.560;14.368;2023-03-14T08:07:50;6.15;;;5.85;;
65552;SDS011;52465;51.560;14.368;2023-03-14T08:10:15;6.00;;;5.70;;
65552;SDS011;52465;51.560;14.368;2023-03-14T08:12:49;6.05;;;5.63;;
65552;SDS011;52465;51.560;14.368;2023-03-14T08:15:16;5.93;;;5.70;;
65552;SDS011;52465;51.560;14.368;2023-03-14T08:17:41;5.97;;;5.68;;
65552;SDS011;52465;51.560;14.368;2023-03-14T08:20:07;6.45;;;6.00;;
65552;SDS011;52465;51.560;14.368;2023-03-14T08:22:35;6.47;;;6.18;;
65552;SDS011;52465;51.560;14.368;2023-03-14T08:25:01;5.97;;;5.68;;
65552;SDS011;52465;51.560;14.368;2023-03-14T08:27:44;6.35;;;6.00;;
65552;SDS011;52465;51.560;14.368;2023-03-14T08:30:11;6.15;;;5.85;;
65552;SDS011;52465;51.560;14.368;2023-03-14T08:32:38;6.00;;;5.70;;
65552;SDS011;52465;51.560;14.368;2023-03-14T08:35:04;6.15;;;5.85;;
65552;SDS011;52465;51.560;14.368;2023-03-14T08:37:31;6.25;;;5.90;;
65552;SDS011;52465;51.560;14.368;2023-03-14T08:39:57;5.57;;;5.28;;
65552;SDS011;52465;51.560;14.368;2023-03-14T08:42:23;6.03;;;5.70;;
65552;SDS011;52465;51.560;14.368;2023-03-14T08:44:50;6.32;;;5.93;;
65552;SDS011;52465;51.560;14.368;2023-03-14T08:47:16;5.75;;;5.55;;
65552;SDS011;52465;51.560;14.368;2023-03-14T08:49:42;5.90;;;5.60;;
65552;SDS011;52465;51.560;14.368;2023-03-14T08:52:08;5.95;;;5.65;;
65552;SDS011;52465;51.560;14.368;2023-03-14T08:54:34;6.05;;;5.72;;
65552;SDS011;52465;51.560;14.368;2023-03-14T08:56:59;6.10;;;5.80;;
65552;SDS011;52465;51.560;14.368;2023-03-14T08:59:25;5.65;;;5.35;;
65552;SDS011;52465;51.560;14.368;2023-03-14T09:01:50;6.28;;;5.82;;
65552;SDS011;52465;51.560;14.368;2023-03-14T09:04:16;6.07;;;5.75;;
65552;SDS011;52465;51.560;14.368;2023-03-14T09:06:41;5.60;;;5.40;;
65552;SDS011;52465;51.560;14.368;2023-03-14T09:09:07;5.60;;;5.30;;
65552;SDS011;52465;51.560;14.368;2023-03-14T09:11:33;5.90;;;5.50;;
65552;SDS011;52465;51.560;14.368;2023-03-14T09:13:59;5.80;;;5.60;;
65552;SDS011;52465;51.560;14.368;2023-03-14T09:16:28;6.40;;;6.10;;
65552;SDS011;52465;51.560;14.368;2023-03-14T09:18:53;6.00;;;5.60;;
65552;SDS011;52465;51.560;14.368;2023-03-14T09:21:20;5.68;;;5.43;;
65552;SDS011;52465;51.560;14.368;2023-03-14T09:23:46;5.75;;;5.40;;
65552;SDS011;52465;51.560;14.368;2023-03-14T09:26:11;6.00;;;5.70;;
65552;SDS011;52465;51.560;14.368;2023-03-14T09:28:37;5.82;;;5.45;;
65552;SDS011;52465;51.560;14.368;2023-03-14T09:31:06;6.05;;;5.75;;
65552;SDS011;52465;51.560;14.368;2023-03-14T09:33:35;5.85;;;5.47;;
65552;SDS011;52465;51.560;14.368;2023-03-14T09:36:04;5.97;;;5.68;;
65552;SDS011;52465;51.560;14.368;2023-03-14T09:41:01;5.80;;;5.60;;
65552;SDS011;52465;51.560;14.368;2023-03-14T09:43:29;5.65;;;5.45;;
65552;SDS011;52465;51.560;14.368;2023-03-14T09:45:57;6.03;;;5.72;;
65552;SDS011;52465;51.560;14.368;2023-03-14T09:48:29;5.90;;;5.60;;
65552;SDS011;52465;51.560;14.368;2023-03-14T09:50:57;5.78;;;5.35;;
65552;SDS011;52465;51.560;14.368;2023-03-14T09:53:31;5.88;;;5.55;;
65552;SDS011;52465;51.560;14.368;2023-03-14T09:56:26;6.20;;;5.80;;
65552;SDS011;52465;51.560;14.368;2023-03-14T09:58:58;6.07;;;5.57;;
65552;SDS011;52465;51.560;14.368;2023-03-14T10:01:27;6.15;;;5.85;;
65552;SDS011;52465;51.560;14.368;2023-03-14T10:03:55;6.05;;;5.75;;
65552;SDS011;52465;51.560;14.368;2023-03-14T10:06:24;6.05;;;5.65;;
65552;SDS011;52465;51.560;14.368;2023-03-14T10:08:52;5.90;;;5.60;;
65552;SDS011;52465;51.560;14.368;2023-03-14T10:11:18;5.90;;;5.60;;
65552;SDS011;52465;51.560;14.368;2023-03-14T10:13:48;5.82;;;5.53;;
65552;SDS011;52465;51.560;14.368;2023-03-14T10:16:30;5.85;;;5.63;;
65552;SDS011;52465;51.560;14.368;2023-03-14T10:21:43;6.00;;;5.60;;
65552;SDS011;52465;51.560;14.368;2023-03-14T10:24:20;5.68;;;5.47;;
65552;SDS011;52465;51.560;14.368;2023-03-14T10:26:48;5.97;;;5.68;;
65552;SDS011;52465;51.560;14.368;2023-03-14T10:29:17;5.82;;;5.53;;
65552;SDS011;52465;51.560;14.368;2023-03-14T10:31:47;6.18;;;5.78;;
65552;SDS011;52465;51.560;14.368;2023-03-14T10:34:16;5.57;;;5.38;;
65552;SDS011;52465;51.560;14.368;2023-03-14T10:36:46;6.00;;;5.43;;
65552;SDS011;52465;51.560;14.368;2023-03-14T10:41:50;6.07;;;5.68;;
65552;SDS011;52465;51.560;14.368;2023-03-14T10:44:20;5.90;;;5.60;;
65552;SDS011;52465;51.560;14.368;2023-03-14T10:46:58;5.78;;;5.47;;
65552;SDS011;52465;51.560;14.368;2023-03-14T10:49:28;5.85;;;5.55;;
65552;SDS011;52465;51.560;14.368;2023-03-14T10:51:55;6.07;;;5.75;;
65552;SDS011;52465;51.560;14.368;2023-03-14T10:54:25;5.82;;;5.53;;
65552;SDS011;52465;51.560;14.368;2023-03-14T10:56:58;5.53;;;5.32;;
65552;SDS011;52465;51.560;14.368;2023-03-14T11:02:00;5.68;;;5.38;;
65552;SDS011;52465;51.560;14.368;2023-03-14T11:07:12;5.75;;;5.47;;
65552;SDS011;52465;51.560;14.368;2023-03-14T11:09:49;5.53;;;5.30;;
65552;SDS011;52465;51.560;14.368;2023-03-14T11:12:27;5.65;;;5.40;;
65552;SDS011;52465;51.560;14.368;2023-03-14T11:14:58;6.18;;;5.78;;
65552;SDS011;52465;51.560;14.368;2023-03-14T11:17:34;5.80;;;5.50;;
65552;SDS011;52465;51.560;14.368;2023-03-14T11:23:18;5.53;;;5.28;;
65552;SDS011;52465;51.560;14.368;2023-03-14T11:28:31;5.75;;;5.47;;
65552;SDS011;52465;51.560;14.368;2023-03-14T11:31:28;5.78;;;5.38;;
65552;SDS011;52465;51.560;14.368;2023-03-14T11:36:29;5.65;;;5.35;;
65552;SDS011;52465;51.560;14.368;2023-03-14T11:38:59;5.80;;;5.40;;
65552;SDS011;52465;51.560;14.368;2023-03-14T11:43:53;5.78;;;5.55;;
65552;SDS011;52465;51.560;14.368;2023-03-14T11:49:01;5.97;;;5.55;;
65552;SDS011;52465;51.560;14.368;2023-03-14T11:51:38;5.45;;;5.25;;
65552;SDS011;52465;51.560;14.368;2023-03-14T11:54:11;5.55;;;5.35;;
65552;SDS011;52465;51.560;14.368;2023-03-14T11:59:20;5.38;;;5.18;;
65552;SDS011;52465;51.560;14.368;2023-03-14T12:07:50;6.15;;;5.75;;
65552;SDS011;52465;51.560;14.368;2023-03-14T12:10:40;5.53;;;5.32;;
65552;SDS011;52465;51.560;14.368;2023-03-14T12:13:12;5.65;;;5.35;;
65552;SDS011;52465;51.560;14.368;2023-03-14T12:15:40;5.60;;;5.30;;
65552;SDS011;52465;51.560;14.368;2023-03-14T12:18:19;5.80;;;5.60;;
65552;SDS011;52465;51.560;14.368;2023-03-14T12:20:52;5.70;;;5.47;;
65552;SDS011;52465;51.560;14.368;2023-03-14T12:23:20;5.55;;;5.25;;
65552;SDS011;52465;51.560;14.368;2023-03-14T12:25:46;5.82;;;5.53;;
65552;SDS011;52465;51.560;14.368;2023-03-14T12:28:21;5.90;;;5.60;;
65552;SDS011;52465;51.560;14.368;2023-03-14T12:30:55;5.70;;;5.40;;
65552;SDS011;52465;51.560;14.368;2023-03-14T12:33:28;5.30;;;5.10;;
65552;SDS011;52465;51.560;14.368;2023-03-14T12:35:58;5.32;;;5.10;;
65552;SDS011;52465;51.560;14.368;2023-03-14T12:41:29;6.15;;;5.75;;
65552;SDS011;52465;51.560;14.368;2023-03-14T12:47:13;5.22;;;5.03;;
65552;SDS011;52465;51.560;14.368;2023-03-14T12:49:42;5.80;;;5.43;;
65552;SDS011;52465;51.560;14.368;2023-03-14T12:52:14;6.10;;;5.70;;
65552;SDS011;52465;51.560;14.368;2023-03-14T12:57:31;5.80;;;5.60;;
65552;SDS011;52465;51.560;14.368;2023-03-14T13:00:02;5.95;;;5.70;;
65552;SDS011;52465;51.560;14.368;2023-03-14T13:05:40;5.40;;;5.20;;
65552;SDS011;52465;51.560;14.368;2023-03-14T13:08:15;5.35;;;5.15;;
65552;SDS011;52465;51.560;14.368;2023-03-14T13:11:18;5.47;;;5.28;;
65552;SDS011;52465;51.560;14.368;2023-03-14T13:13:46;6.00;;;5.70;;
65552;SDS011;52465;51.560;14.368;2023-03-14T13:18:45;5.82;;;5.53;;
65552;SDS011;52465;51.560;14.368;2023-03-14T13:21:16;5.75;;;5.55;;
65552;SDS011;52465;51.560;14.368;2023-03-14T13:24:00;5.75;;;5.45;;
65552;SDS011;52465;51.560;14.368;2023-03-14T13:26:32;5.97;;;5.70;;
65552;SDS011;52465;51.560;14.368;2023-03-14T13:29:15;5.90;;;5.60;;
65552;SDS011;52465;51.560;14.368;2023-03-14T13:31:46;5.68;;;5.38;;
65552;SDS011;52465;51.560;14.368;2023-03-14T13:34:12;6.35;;;5.78;;
65552;SDS011;52465;51.560;14.368;2023-03-14T13:36:38;5.80;;;5.45;;
65552;SDS011;52465;51.560;14.368;2023-03-14T13:39:06;5.80;;;5.50;;
65552;SDS011;52465;51.560;14.368;2023-03-14T13:41:40;5.88;;;5.57;;
65552;SDS011;52465;51.560;14.368;2023-03-14T13:44:07;5.85;;;5.65;;
65552;SDS011;52465;51.560;14.368;2023-03-14T13:46:39;5.93;;;5.63;;
65552;SDS011;52465;51.560;14.368;2023-03-14T13:49:05;5.90;;;5.60;;
65552;SDS011;52465;51.560;14.368;2023-03-14T13:51:36;5.20;;;5.00;;
65552;SDS011;52465;51.560;14.368;2023-03-14T13:54:11;5.82;;;5.53;;
65552;SDS011;52465;51.560;14.368;2023-03-14T13:56:41;5.75;;;5.55;;
65552;SDS011;52465;51.560;14.368;2023-03-14T13:59:26;6.13;;;5.82;;
65552;SDS011;52465;51.560;14.368;2023-03-14T14:01:53;6.10;;;5.80;;
65552;SDS011;52465;51.560;14.368;2023-03-14T14:04:21;5.60;;;5.40;;
65552;SDS011;52465;51.560;14.368;2023-03-14T14:06:49;5.50;;;5.30;;
65552;SDS011;52465;51.560;14.368;2023-03-14T14:09:25;5.72;;;5.45;;
65552;SDS011;52465;51.560;14.368;2023-03-14T14:14:28;5.68;;;5.47;;
65552;SDS011;52465;51.560;14.368;2023-03-14T14:17:24;5.13;;;4.93;;
65552;SDS011;52465;51.560;14.368;2023-03-14T14:19:54;5.40;;;5.10;;
65552;SDS011;52465;51.560;14.368;2023-03-14T14:22:21;5.30;;;5.10;;
65552;SDS011;52465;51.560;14.368;2023-03-14T14:24:47;4.72;;;4.53;;
65552;SDS011;52465;51.560;14.368;2023-03-14T14:27:13;5.13;;;4.93;;
65552;SDS011;52465;51.560;14.368;2023-03-14T14:29:41;5.50;;;5.20;;
65552;SDS011;52465;51.560;14.368;2023-03-14T14:37:21;4.82;;;4.63;;
65552;SDS011;52465;51.560;14.368;2023-03-14T14:39:48;5.07;;;4.88;;
65552;SDS011;52465;51.560;14.368;2023-03-14T14:42:16;5.22;;;5.03;;
65552;SDS011;52465;51.560;14.368;2023-03-14T14:44:43;4.50;;;4.30;;
65552;SDS011;52465;51.560;14.368;2023-03-14T14:47:13;5.05;;;4.85;;
65552;SDS011;52465;51.560;14.368;2023-03-14T14:49:40;5.00;;;4.80;;
65552;SDS011;52465;51.560;14.368;2023-03-14T14:52:09;5.20;;;5.00;;
65552;SDS011;52465;51.560;14.368;2023-03-14T14:54:39;5.15;;;4.95;;
65552;SDS011;52465;51.560;14.368;2023-03-14T14:57:17;4.90;;;4.70;;
65552;SDS011;52465;51.560;14.368;2023-03-14T14:59:55;5.20;;;5.00;;
65552;SDS011;52465;51.560;14.368;2023-03-14T15:02:28;4.80;;;4.60;;
65552;SDS011;52465;51.560;14.368;2023-03-14T15:04:56;4.85;;;4.65;;
65552;SDS011;52465;51.560;14.368;2023-03-14T15:07:21;4.90;;;4.70;;
65552;SDS011;52465;51.560;14.368;2023-03-14T15:09:46;4.80;;;4.60;;
65552;SDS011;52465;51.560;14.368;2023-03-14T15:12:12;4.75;;;4.55;;
65552;SDS011;52465;51.560;14.368;2023-03-14T15:14:37;5.00;;;4.80;;
65552;SDS011;52465;51.560;14.368;2023-03-14T15:17:03;4.82;;;4.63;;
65552;SDS011;52465;51.560;14.368;2023-03-14T15:19:28;4.47;;;4.28;;
65552;SDS011;52465;51.560;14.368;2023-03-14T15:21:57;5.20;;;5.00;;
65552;SDS011;52465;51.560;14.368;2023-03-14T15:24:23;4.80;;;4.60;;
65552;SDS011;52465;51.560;14.368;2023-03-14T15:26:48;4.68;;;4.47;;
65552;SDS011;52465;51.560;14.368;2023-03-14T15:29:13;5.07;;;4.78;;
65552;SDS011;52465;51.560;14.368;2023-03-14T15:31:39;4.88;;;4.68;;
65552;SDS011;52465;51.560;14.368;2023-03-14T15:34:05;4.95;;;4.75;;
65552;SDS011;52465;51.560;14.368;2023-03-14T15:36:32;4.70;;;4.50;;
65552;SDS011;52465;51.560;14.368;2023-03-14T15:39:00;4.82;;;4.57;;
65552;SDS011;52465;51.560;14.368;2023-03-14T15:41:26;4.72;;;4.53;;
65552;SDS011;52465;51.560;14.368;2023-03-14T15:43:52;5.00;;;4.80;;
65552;SDS011;52465;51.560;14.368;2023-03-14T15:46:18;5.00;;;4.80;;
65552;SDS011;52465;51.560;14.368;2023-03-14T15:48:44;4.60;;;4.40;;